createdAt,value
2023-01-13T00:00:16.699Z,97536.03
2023-01-13T00:02:43.883Z,97538.34
2023-01-13T00:05:11.281Z,97549.25
2023-01-13T00:07:40.529Z,97551.38
2023-01-13T00:10:09.719Z,97562.66
2023-01-13T00:12:40.611Z,97571.72
2023-01-13T00:15:09.421Z,97564.13
2023-01-13T00:17:36.522Z,97581.78
2023-01-13T00:20:03.858Z,97585.28
2023-01-13T00:22:34.244Z,97584.44
2023-01-13T00:25:02.127Z,97606.75
2023-01-13T00:27:29.569Z,97605.38
2023-01-13T00:29:56.565Z,97612.84
2023-01-13T00:32:23.805Z,97612.97
2023-01-13T00:34:50.902Z,97629.16
2023-01-13T00:37:17.870Z,97628.34
2023-01-13T00:39:46.034Z,97637.44
2023-01-13T00:42:31.732Z,97644.69
2023-01-13T00:44:58.649Z,97645.81
2023-01-13T00:47:25.583Z,97656.56
2023-01-13T00:49:52.534Z,97668.13
2023-01-13T00:52:19.532Z,97674.41
2023-01-13T00:54:46.448Z,97681.63
2023-01-13T00:57:13.358Z,97685.28
2023-01-13T00:59:40.291Z,97690.56
2023-01-13T01:02:07.425Z,97707.41
2023-01-13T01:04:34.435Z,97715.34
2023-01-13T01:07:01.695Z,97725.25
2023-01-13T01:09:34.917Z,97731.50
2023-01-13T01:12:02.225Z,97738.59
2023-01-13T01:14:29.116Z,97750.16
2023-01-13T01:16:56.098Z,97750.00
2023-01-13T01:19:23.139Z,97761.56
2023-01-13T01:21:50.115Z,97767.81
2023-01-13T01:24:17.194Z,97772.44
2023-01-13T01:26:44.261Z,97776.91
2023-01-13T01:29:15.926Z,97783.00
2023-01-13T01:31:43.641Z,97789.13
2023-01-13T01:34:11.145Z,97799.84
2023-01-13T01:36:39.788Z,97803.50
2023-01-13T01:39:07.242Z,97811.41
2023-01-13T01:41:35.900Z,97813.34
2023-01-13T01:44:08.900Z,97814.66
2023-01-13T01:46:41.760Z,97820.63
2023-01-13T01:49:15.618Z,97832.03
2023-01-13T01:52:04.812Z,97835.81
2023-01-13T01:54:40.598Z,97855.94
2023-01-13T01:57:11.720Z,97851.47
2023-01-13T01:59:39.269Z,97863.88
2023-01-13T02:02:06.504Z,97866.50
2023-01-13T02:04:51.330Z,97874.28
2023-01-13T02:07:24.785Z,97874.75
2023-01-13T02:09:53.057Z,97882.34
2023-01-13T02:12:32.774Z,97879.03
2023-01-13T02:15:26.174Z,97892.56
2023-01-13T02:17:56.164Z,97900.19
2023-01-13T02:20:28.889Z,97911.59
2023-01-13T02:23:35.395Z,97920.34
2023-01-13T02:26:20.693Z,97924.97
2023-01-13T02:29:50.712Z,97941.63
2023-01-13T02:32:29.539Z,97959.31
2023-01-13T02:35:06.735Z,97945.09
2023-01-13T02:37:37.472Z,97954.81
2023-01-13T02:40:25.686Z,97973.31
2023-01-13T02:43:23.977Z,97982.25
2023-01-13T02:46:03.278Z,97992.81
2023-01-13T02:48:32.615Z,97990.31
2023-01-13T02:51:08.287Z,98004.22
2023-01-13T02:53:41.090Z,98006.16
2023-01-13T02:56:10.126Z,98001.56
2023-01-13T02:58:39.928Z,98003.69
2023-01-13T03:01:07.112Z,98020.06
2023-01-13T03:03:34.005Z,98032.56
2023-01-13T03:06:31.959Z,98031.59
2023-01-13T03:09:04.644Z,98050.09
2023-01-13T03:11:40.103Z,98064.16
2023-01-13T03:14:50.133Z,98072.91
2023-01-13T03:17:44.404Z,98077.38
2023-01-13T03:20:25.641Z,98081.81
2023-01-13T03:22:58.476Z,98083.47
2023-01-13T03:25:55.531Z,98090.41
2023-01-13T03:28:32.706Z,98100.31
2023-01-13T03:31:08.300Z,98107.25
2023-01-13T03:33:41.326Z,98109.91
2023-01-13T03:36:11.691Z,98114.06
2023-01-13T03:38:45.739Z,98136.00
2023-01-13T03:41:19.344Z,98139.66
2023-01-13T03:44:12.545Z,98144.94
2023-01-13T03:46:48.227Z,98157.97
2023-01-13T03:49:22.530Z,98169.56
2023-01-13T03:51:55.566Z,98160.78
2023-01-13T03:54:25.199Z,98178.16
2023-01-13T03:56:57.466Z,98179.97
2023-01-13T03:59:28.284Z,98180.94
2023-01-13T04:02:00.516Z,98178.16
2023-01-13T04:04:36.312Z,98192.22
2023-01-13T04:07:27.477Z,98208.34
2023-01-13T04:10:00.356Z,98210.84
2023-01-13T04:12:52.524Z,98217.13
2023-01-13T04:15:22.603Z,98227.53
2023-01-13T04:17:50.613Z,98246.03
2023-01-13T04:20:17.612Z,98258.28
2023-01-13T04:22:44.431Z,98274.13
2023-01-13T04:25:11.685Z,98270.75
2023-01-13T04:27:38.655Z,98282.34
2023-01-13T04:30:07.139Z,98289.25
2023-01-13T04:32:33.930Z,98289.25
2023-01-13T04:35:00.757Z,98305.97
2023-01-13T04:37:27.580Z,98313.19
2023-01-13T04:39:54.453Z,98330.56
2023-01-13T04:42:21.299Z,98343.63
2023-01-13T04:44:48.128Z,98355.03
2023-01-13T04:47:14.959Z,98357.69
2023-01-13T04:49:41.785Z,98359.50
2023-01-13T04:52:08.659Z,98364.66
2023-01-13T04:54:35.461Z,98378.69
2023-01-13T04:57:02.278Z,98384.13
2023-01-13T04:59:29.131Z,98391.06
2023-01-13T05:01:56.105Z,98389.41
2023-01-13T05:04:23.109Z,98396.50
2023-01-13T05:06:50.011Z,98401.66
2023-01-13T05:09:16.880Z,98409.69
2023-01-13T05:12:12.852Z,98424.59
2023-01-13T05:14:58.557Z,98434.31
2023-01-13T05:17:26.266Z,98444.91
2023-01-13T05:19:53.227Z,98443.94
2023-01-13T05:22:38.897Z,98446.56
2023-01-13T05:25:28.255Z,98463.38
2023-01-13T05:27:58.069Z,98455.47
2023-01-13T05:30:27.777Z,98476.59
2023-01-13T05:32:54.880Z,98476.59
2023-01-13T05:35:21.836Z,98480.25
2023-01-13T05:37:48.667Z,98480.25
2023-01-13T05:40:36.805Z,98490.94
2023-01-13T05:43:22.219Z,98513.88
2023-01-13T05:46:05.010Z,98528.78
2023-01-13T05:48:35.437Z,98529.72
2023-01-13T05:51:04.215Z,98540.19
2023-01-13T05:53:32.104Z,98549.06
2023-01-13T05:55:59.461Z,98560.22
2023-01-13T05:58:27.980Z,98572.47
2023-01-13T06:01:03.830Z,98572.75
2023-01-13T06:03:31.229Z,98569.41
2023-01-13T06:06:02.428Z,98587.09
2023-01-13T06:08:29.613Z,98599.06
2023-01-13T06:10:56.737Z,98604.78
2023-01-13T06:13:25.536Z,98609.78
2023-01-13T06:15:55.749Z,98619.53
2023-01-13T06:18:22.780Z,98623.41
2023-01-13T06:20:49.780Z,98629.25
2023-01-13T06:23:16.618Z,98635.91
2023-01-13T06:25:49.206Z,98637.88
2023-01-13T06:28:16.177Z,98639.41
2023-01-13T06:30:48.274Z,98647.91
2023-01-13T06:33:20.071Z,98658.63
2023-01-13T06:35:54.469Z,98662.66
2023-01-13T06:38:23.741Z,98655.47
2023-01-13T06:40:50.753Z,98655.16
2023-01-13T06:43:18.028Z,98670.75
2023-01-13T06:45:56.204Z,98678.44
2023-01-13T06:48:33.222Z,98683.44
2023-01-13T06:51:00.435Z,98692.22
2023-01-13T06:53:27.517Z,98694.44
2023-01-13T06:55:54.369Z,98699.47
2023-01-13T06:58:21.253Z,98696.69
2023-01-13T07:00:51.863Z,98710.63
2023-01-13T07:03:19.966Z,98721.06
2023-01-13T07:05:55.106Z,98731.22
2023-01-13T07:08:23.487Z,98738.19
2023-01-13T07:10:51.619Z,98753.94
2023-01-13T07:13:37.257Z,98757.00
2023-01-13T07:16:07.325Z,98772.28
2023-01-13T07:18:35.225Z,98773.53
2023-01-13T07:21:03.461Z,98786.88
2023-01-13T07:23:33.320Z,98797.34
2023-01-13T07:26:00.747Z,98800.00
2023-01-13T07:28:29.283Z,98809.88
2023-01-13T07:30:57.012Z,98816.28
2023-01-13T07:33:24.716Z,98823.38
2023-01-13T07:35:59.875Z,98827.81
2023-01-13T07:38:27.492Z,98840.63
2023-01-13T07:40:55.156Z,98840.91
2023-01-13T07:43:34.372Z,98855.53
2023-01-13T07:46:05.088Z,98860.91
2023-01-13T07:48:35.600Z,98862.03
2023-01-13T07:51:07.995Z,98873.56
2023-01-13T07:53:35.942Z,98887.63
2023-01-13T07:56:04.764Z,98899.75
2023-01-13T07:58:33.265Z,98911.06
2023-01-13T08:01:00.369Z,98918.00
2023-01-13T08:03:28.021Z,98920.81
2023-01-13T08:05:54.931Z,98928.59
2023-01-13T08:08:21.870Z,98926.09
2023-01-13T08:10:48.893Z,98952.00
2023-01-13T08:13:18.149Z,98947.28
2023-01-13T08:15:46.491Z,98957.28
2023-01-13T08:18:14.106Z,98963.06
2023-01-13T08:20:41.667Z,98958.91
2023-01-13T08:23:08.753Z,98959.34
2023-01-13T08:25:35.850Z,98971.06
2023-01-13T08:28:02.736Z,98976.00
2023-01-13T08:30:29.880Z,98971.41
2023-01-13T08:32:57.033Z,98987.03
2023-01-13T08:35:24.455Z,98989.53
2023-01-13T08:37:51.923Z,99000.69
2023-01-13T08:40:21.131Z,99006.69
2023-01-13T08:42:48.834Z,99003.78
2023-01-13T08:45:16.346Z,99004.63
2023-01-13T08:47:43.333Z,99015.00
2023-01-13T08:50:13.619Z,99016.66
2023-01-13T08:52:40.847Z,99018.34
2023-01-13T08:55:09.252Z,99020.84
2023-01-13T08:57:36.164Z,99039.25
2023-01-13T09:00:05.660Z,99039.75
2023-01-13T09:02:32.786Z,99054.78
2023-01-13T09:05:01.886Z,99053.13
2023-01-13T09:07:29.847Z,99067.41
2023-01-13T09:09:57.354Z,99075.78
2023-01-13T09:12:43.421Z,99081.66
2023-01-13T09:15:11.227Z,99096.19
2023-01-13T09:17:38.167Z,99096.78
2023-01-13T09:20:06.361Z,99098.31
2023-01-13T09:22:35.878Z,99110.72
2023-01-13T09:25:02.746Z,99117.63
2023-01-13T09:27:30.291Z,99124.88
2023-01-13T09:29:57.158Z,99135.47
2023-01-13T09:32:24.075Z,99144.13
2023-01-13T09:35:03.309Z,99155.69
2023-01-13T09:37:36.933Z,99161.25
2023-01-13T09:40:19.513Z,99170.19
2023-01-13T09:43:21.610Z,99182.44
2023-01-13T09:45:54.248Z,99188.94
2023-01-13T09:48:52.391Z,99193.97
2023-01-13T09:51:32.077Z,99193.13
2023-01-13T09:54:28.211Z,99198.31
2023-01-13T09:56:55.445Z,99193.59
2023-01-13T09:59:22.505Z,99207.66
2023-01-13T10:02:00.792Z,99214.06
2023-01-13T10:04:28.391Z,99205.41
2023-01-13T10:07:06.320Z,99209.75
2023-01-13T10:09:45.357Z,99209.03
2023-01-13T10:12:39.624Z,99217.09
2023-01-13T10:15:14.030Z,99229.34
2023-01-13T10:17:49.665Z,99225.06
2023-01-13T10:21:01.639Z,99235.75
2023-01-13T10:23:58.137Z,99237.69
2023-01-13T10:26:40.331Z,99247.44
2023-01-13T10:29:25.275Z,99251.06
2023-01-13T10:31:56.615Z,99260.56
2023-01-13T10:34:24.580Z,99261.06
2023-01-13T10:37:08.670Z,99269.22
2023-01-13T10:39:45.236Z,99276.94
2023-01-13T10:42:22.380Z,99286.44
2023-01-13T10:44:53.695Z,99294.00
2023-01-13T10:47:26.600Z,99294.84
2023-01-13T10:50:07.062Z,99309.66
2023-01-13T10:52:39.729Z,99314.38
2023-01-13T10:55:28.650Z,99321.84
2023-01-13T10:57:55.599Z,99328.13
2023-01-13T11:00:31.403Z,99341.94
2023-01-13T11:03:35.268Z,99347.56
2023-01-13T11:06:03.561Z,99361.31
2023-01-13T11:08:51.919Z,99359.16
2023-01-13T11:11:36.837Z,99366.88
2023-01-13T11:14:28.081Z,99363.84
2023-01-13T11:17:00.417Z,99367.34
2023-01-13T11:19:31.503Z,99369.59
2023-01-13T11:22:10.377Z,99376.59
2023-01-13T11:24:46.373Z,99383.44
2023-01-13T11:27:55.852Z,99388.75
2023-01-13T11:30:39.101Z,99396.41
2023-01-13T11:33:15.185Z,99391.13
2023-01-13T11:35:42.240Z,99395.69
2023-01-13T11:38:35.325Z,99409.66
2023-01-13T11:41:40.221Z,99418.34
2023-01-13T11:44:10.246Z,99418.19
2023-01-13T11:46:37.697Z,99423.41
2023-01-13T11:49:05.367Z,99422.66
2023-01-13T11:51:55.625Z,99433.00
2023-01-13T11:54:56.571Z,99429.50
2023-01-13T11:57:45.610Z,99432.06
2023-01-13T12:00:40.595Z,99433.84
2023-01-13T12:03:23.783Z,99443.34
2023-01-13T12:06:20.450Z,99445.44
2023-01-13T12:09:02.453Z,99456.84
2023-01-13T12:12:00.913Z,99447.47
2023-01-13T12:15:05.168Z,99439.75
2023-01-13T12:17:56.816Z,99450.69
2023-01-13T12:20:34.998Z,99452.13
2023-01-13T12:23:06.877Z,99458.00
2023-01-13T12:25:43.304Z,99470.91
2023-01-13T12:28:58.304Z,99469.06
2023-01-13T12:31:27.134Z,99471.63
2023-01-13T12:34:00.912Z,99472.31
2023-01-13T12:36:39.847Z,99477.53
2023-01-13T12:39:30.035Z,99479.91
2023-01-13T12:42:32.639Z,99491.94
2023-01-13T12:45:11.635Z,99501.31
2023-01-13T12:47:43.956Z,99507.94
2023-01-13T12:50:23.321Z,99510.09
2023-01-13T12:52:56.423Z,99506.09
2023-01-13T12:55:24.484Z,99516.47
2023-01-13T12:58:06.691Z,99530.19
2023-01-13T13:00:42.175Z,99530.91
2023-01-13T13:03:12.610Z,99532.47
2023-01-13T13:05:42.902Z,99547.28
2023-01-13T13:08:25.273Z,99551.47
2023-01-13T13:11:35.829Z,99564.38
2023-01-13T13:14:12.247Z,99556.09
2023-01-13T13:16:50.300Z,99573.56
2023-01-13T13:19:23.042Z,99561.84
2023-01-13T13:22:16.737Z,99576.66
2023-01-13T13:24:57.765Z,99571.22
2023-01-13T13:27:44.442Z,99574.09
2023-01-13T13:30:21.511Z,99586.28
2023-01-13T13:33:03.770Z,99588.66
2023-01-13T13:35:55.359Z,99600.72
2023-01-13T13:39:03.556Z,99600.22
2023-01-13T13:41:49.502Z,99593.56
2023-01-13T13:44:55.754Z,99596.09
2023-01-13T13:47:23.104Z,99602.97
2023-01-13T13:49:56.321Z,99605.22
2023-01-13T13:52:23.360Z,99599.66
2023-01-13T13:54:54.301Z,99604.56
2023-01-13T13:57:44.963Z,99606.97
2023-01-13T14:00:15.339Z,99597.09
2023-01-13T14:02:50.787Z,99610.94
2023-01-13T14:05:30.512Z,99613.19
2023-01-13T14:08:04.250Z,99607.44
2023-01-13T14:10:34.852Z,99623.63
2023-01-13T14:13:20.408Z,99621.50
2023-01-13T14:15:50.650Z,99626.91
2023-01-13T14:18:22.013Z,99628.81
2023-01-13T14:20:59.640Z,99633.75
2023-01-13T14:23:32.554Z,99636.41
2023-01-13T14:26:08.988Z,99643.25
2023-01-13T14:28:41.250Z,99647.72
2023-01-13T14:31:10.135Z,99646.75
2023-01-13T14:33:41.789Z,99661.03
2023-01-13T14:36:17.163Z,99654.56
2023-01-13T14:38:46.893Z,99659.88
2023-01-13T14:41:18.895Z,99664.44
2023-01-13T14:43:47.814Z,99668.41
2023-01-13T14:46:15.634Z,99675.28
2023-01-13T14:48:47.393Z,99675.91
2023-01-13T14:51:23.237Z,99676.13
2023-01-13T14:53:50.516Z,99681.31
2023-01-13T14:56:55.421Z,99686.59
2023-01-13T15:00:08.270Z,99685.78
2023-01-13T15:02:49.126Z,99693.63
2023-01-13T15:05:24.776Z,99698.91
2023-01-13T15:08:11.948Z,99704.09
2023-01-13T15:10:46.268Z,99711.22
2023-01-13T15:13:36.045Z,99719.28
2023-01-13T15:16:07.203Z,99712.69
2023-01-13T15:18:35.955Z,99720.50
2023-01-13T15:21:03.201Z,99717.22
2023-01-13T15:23:30.175Z,99726.66
2023-01-13T15:26:00.579Z,99729.91
2023-01-13T15:28:29.968Z,99739.44
2023-01-13T15:31:02.066Z,99738.81
2023-01-13T15:33:31.952Z,99744.97
2023-01-13T15:35:59.100Z,99751.00
2023-01-13T15:38:26.251Z,99751.00
2023-01-13T15:40:53.261Z,99743.75
2023-01-13T15:43:43.143Z,99756.16
2023-01-13T15:46:38.845Z,99746.41
2023-01-13T15:49:35.206Z,99753.22
2023-01-13T15:52:04.617Z,99751.50
2023-01-13T15:54:31.749Z,99764.59
2023-01-13T15:56:59.094Z,99760.19
2023-01-13T15:59:28.320Z,99765.13
2023-01-13T16:01:55.287Z,99761.06
2023-01-13T16:04:22.211Z,99768.75
2023-01-13T16:06:49.176Z,99772.25
2023-01-13T16:09:17.239Z,99782.53
2023-01-13T16:11:44.480Z,99783.34
2023-01-13T16:14:11.601Z,99782.41
2023-01-13T16:16:38.659Z,99786.84
2023-01-13T16:19:05.687Z,99793.13
2023-01-13T16:21:32.768Z,99794.09
2023-01-13T16:23:59.838Z,99796.75
2023-01-13T16:26:30.323Z,99801.09
2023-01-13T16:28:58.583Z,99806.38
2023-01-13T16:31:32.528Z,99802.03
2023-01-13T16:34:03.644Z,99806.94
2023-01-13T16:36:32.183Z,99815.66
2023-01-13T16:38:59.317Z,99808.25
2023-01-13T16:41:26.567Z,99812.06
2023-01-13T16:43:53.921Z,99814.47
2023-01-13T16:46:27.311Z,99820.19
2023-01-13T16:48:57.059Z,99812.09
2023-01-13T16:51:25.065Z,99816.56
2023-01-13T16:53:52.258Z,99817.53
2023-01-13T16:56:20.771Z,99827.50
2023-01-13T16:58:48.349Z,99828.13
2023-01-13T17:01:27.901Z,99832.28
2023-01-13T17:03:56.083Z,99839.63
2023-01-13T17:06:29.679Z,99839.19
2023-01-13T17:09:02.797Z,99841.13
2023-01-13T17:11:30.274Z,99842.47
2023-01-13T17:13:57.796Z,99845.38
2023-01-13T17:16:26.439Z,99850.81
2023-01-13T17:18:54.210Z,99851.84
2023-01-13T17:21:21.764Z,99850.84
2023-01-13T17:23:49.474Z,99852.41
2023-01-13T17:26:29.535Z,99851.00
2023-01-13T17:28:56.570Z,99850.63
2023-01-13T17:31:24.605Z,99849.44
2023-01-13T17:33:51.720Z,99831.22
2023-01-13T17:36:19.578Z,99832.44
2023-01-13T17:38:47.869Z,99829.53
2023-01-13T17:41:16.055Z,99826.75
2023-01-13T17:43:44.490Z,99835.31
2023-01-13T17:46:14.185Z,99838.44
2023-01-13T17:48:44.022Z,99830.16
2023-01-13T17:51:13.998Z,99841.00
2023-01-13T17:53:41.754Z,99849.66
2023-01-13T17:56:10.276Z,99849.53
2023-01-13T17:58:38.823Z,99862.94
2023-01-13T18:01:12.502Z,99876.56
2023-01-13T18:03:42.560Z,99881.53
2023-01-13T18:06:18.149Z,99893.34
2023-01-13T18:08:46.727Z,99892.41
2023-01-13T18:11:15.349Z,99895.63
2023-01-13T18:13:45.980Z,99903.50
2023-01-13T18:16:17.353Z,99890.81
2023-01-13T18:18:47.015Z,99882.75
2023-01-13T18:21:44.398Z,99885.97
2023-01-13T18:24:32.810Z,99881.53
2023-01-13T18:27:19.144Z,99890.94
2023-01-13T18:29:46.570Z,99893.94
2023-01-13T18:32:14.326Z,99903.97
2023-01-13T18:34:41.699Z,99895.41
2023-01-13T18:37:10.765Z,99883.09
2023-01-13T18:39:39.493Z,99878.03
2023-01-13T18:42:27.561Z,99876.47
2023-01-13T18:44:57.848Z,99872.97
2023-01-13T18:47:26.511Z,99876.47
2023-01-13T18:49:53.607Z,99875.25
2023-01-13T18:52:21.396Z,99875.97
2023-01-13T18:54:49.260Z,99885.38
2023-01-13T18:57:17.511Z,99885.63
2023-01-13T18:59:45.528Z,99887.78
2023-01-13T19:02:19.473Z,99886.81
2023-01-13T19:04:48.150Z,99887.53
2023-01-13T19:07:24.034Z,99897.06
2023-01-13T19:09:51.698Z,99883.69
2023-01-13T19:12:39.452Z,99896.13
2023-01-13T19:15:08.018Z,99902.38
2023-01-13T19:17:35.954Z,99905.66
2023-01-13T19:20:05.743Z,99905.28
2023-01-13T19:22:35.701Z,99910.59
2023-01-13T19:25:05.156Z,99920.13
2023-01-13T19:27:34.822Z,99928.22
2023-01-13T19:30:02.604Z,99927.38
2023-01-13T19:32:33.946Z,99909.75
2023-01-13T19:35:03.874Z,99907.81
2023-01-13T19:37:32.052Z,99919.28
2023-01-13T19:40:00.260Z,99917.38
2023-01-13T19:42:48.155Z,99915.53
2023-01-13T19:45:29.772Z,99929.19
2023-01-13T19:48:05.452Z,99927.16
2023-01-13T19:50:37.133Z,99920.63
2023-01-13T19:53:10.088Z,99906.50
2023-01-13T19:55:37.636Z,99908.56
2023-01-13T19:58:05.181Z,99910.97
2023-01-13T20:00:37.372Z,99910.72
2023-01-13T20:03:08.396Z,99906.03
2023-01-13T20:05:38.240Z,99905.88
2023-01-13T20:08:06.689Z,99903.38
2023-01-13T20:10:35.861Z,99902.75
2023-01-13T20:13:04.376Z,99904.69
2023-01-13T20:15:36.074Z,99900.34
2023-01-13T20:18:03.963Z,99893.34
2023-01-13T20:20:31.651Z,99893.34
2023-01-13T20:23:00.005Z,99889.00
2023-01-13T20:25:29.340Z,99881.66
2023-01-13T20:27:57.133Z,99874.28
2023-01-13T20:30:27.703Z,99875.13
2023-01-13T20:32:56.899Z,99879.25
2023-01-13T20:35:28.017Z,99879.94
2023-01-13T20:37:55.168Z,99890.44
2023-01-13T20:40:22.725Z,99895.41
2023-01-13T20:42:50.694Z,99897.81
2023-01-13T20:45:21.698Z,99900.59
2023-01-13T20:47:50.045Z,99896.97
2023-01-13T20:50:19.141Z,99900.22
2023-01-13T20:52:50.070Z,99900.72
2023-01-13T20:55:17.523Z,99894.06
2023-01-13T20:57:50.288Z,99898.63
2023-01-13T21:00:18.128Z,99897.19
2023-01-13T21:02:46.227Z,99890.44
2023-01-13T21:05:16.673Z,99889.94
2023-01-13T21:07:46.167Z,99886.75
2023-01-13T21:10:17.663Z,99875.78
2023-01-13T21:13:03.618Z,99877.19
2023-01-13T21:15:30.803Z,99859.28
2023-01-13T21:18:16.470Z,99861.22
2023-01-13T21:20:45.195Z,99866.84
2023-01-13T21:23:12.417Z,99871.66
2023-01-13T21:25:41.108Z,99870.44
2023-01-13T21:28:15.237Z,99869.09
2023-01-13T21:30:45.693Z,99854.41
2023-01-13T21:33:16.181Z,99853.19
2023-01-13T21:35:46.387Z,99859.81
2023-01-13T21:38:14.021Z,99867.41
2023-01-13T21:40:42.744Z,99862.66
2023-01-13T21:43:31.558Z,99868.09
2023-01-13T21:46:17.855Z,99863.19
2023-01-13T21:48:50.156Z,99869.81
2023-01-13T21:51:20.437Z,99863.38
2023-01-13T21:53:50.971Z,99861.41
2023-01-13T21:56:19.069Z,99859.38
2023-01-13T21:58:46.343Z,99848.75
2023-01-13T22:01:13.596Z,99850.44
2023-01-13T22:04:00.314Z,99843.28
2023-01-13T22:06:28.054Z,99824.66
2023-01-13T22:09:00.419Z,99812.84
2023-01-13T22:11:29.033Z,99824.06
2023-01-13T22:14:08.685Z,99827.09
2023-01-13T22:16:45.581Z,99831.16
2023-01-13T22:19:14.765Z,99839.91
2023-01-13T22:21:42.302Z,99842.41
2023-01-13T22:24:11.661Z,99840.59
2023-01-13T22:26:38.986Z,99830.09
2023-01-13T22:29:07.128Z,99820.56
2023-01-13T22:31:35.992Z,99803.31
2023-01-13T22:34:03.547Z,99794.75
2023-01-13T22:36:30.708Z,99784.09
2023-01-13T22:39:00.058Z,99784.09
2023-01-13T22:41:27.418Z,99795.25
2023-01-13T22:43:54.859Z,99799.16
2023-01-13T22:46:23.611Z,99797.22
2023-01-13T22:48:54.023Z,99787.56
2023-01-13T22:51:23.139Z,99785.53
2023-01-13T22:53:50.623Z,99788.44
2023-01-13T22:56:21.465Z,99793.19
2023-01-13T22:58:51.094Z,99790.78
2023-01-13T23:01:18.446Z,99791.28
2023-01-13T23:03:48.184Z,99786.97
2023-01-13T23:06:16.185Z,99779.25
2023-01-13T23:08:45.059Z,99762.09
2023-01-13T23:11:14.632Z,99755.56
2023-01-13T23:13:46.250Z,99748.81
2023-01-13T23:16:20.593Z,99748.09
2023-01-13T23:18:48.870Z,99746.28
2023-01-13T23:21:20.573Z,99742.19
2023-01-13T23:23:48.516Z,99725.44
2023-01-13T23:26:16.476Z,99708.75
2023-01-13T23:28:44.206Z,99705.13
2023-01-13T23:31:20.721Z,99699.38
2023-01-13T23:33:49.130Z,99681.88
2023-01-13T23:36:22.464Z,99677.53
2023-01-13T23:38:50.292Z,99692.75
2023-01-13T23:41:22.723Z,99695.56
2023-01-13T23:43:54.612Z,99682.03
2023-01-13T23:46:22.419Z,99688.16
2023-01-13T23:48:50.873Z,99671.66
2023-01-13T23:51:18.712Z,99665.50
2023-01-13T23:53:48.380Z,99661.28
2023-01-13T23:56:19.645Z,99655.28
2023-01-13T23:58:47.556Z,99645.75
